Grover, Wyoming
Current Conditions -  °F | °C
As of 6:35 PM on Monday 24 Nov 2014 (Local Time) from KAFO Reporting Station
Clear Clear  
Wind Chill: 18°   Ceiling: Unl
Heat Index: 18°   Visibility: 10mi
Dew Point: 12°   Wind: 0mph
Humidity: 79%   Direction: NA
Pressure: 30.34"   Gusts: NA
Location:  42.79°N, 110.94°W
Report Text: KAFO 250135Z AUTO 00000KT 10SM CLR M08/M11 A3034 RMK AO2
Loading
Personal Weather Stations






























Interactive Weather Map New forecast layout! Learn more

10-Day Weather Forecast

Advertisements
Track Severe Weather on mobile